createdAt,value
2022-08-17T00:03:06.105Z,2.47
2022-08-17T00:08:08.033Z,2.42
2022-08-17T00:13:24.631Z,2.50
2022-08-17T00:19:01.685Z,2.10
2022-08-17T00:23:49.782Z,2.55
2022-08-17T00:28:51.974Z,2.75
2022-08-17T00:33:54.091Z,2.45
2022-08-17T00:38:55.649Z,2.08
2022-08-17T00:44:00.630Z,2.28
2022-08-17T00:49:02.555Z,2.40
2022-08-17T00:54:13.452Z,2.53
2022-08-17T00:59:18.707Z,2.10
2022-08-17T01:04:21.658Z,2.60
2022-08-17T01:09:23.295Z,2.90
2022-08-17T01:14:25.798Z,2.20
2022-08-17T01:19:31.485Z,2.38
2022-08-17T01:24:34.140Z,2.50
2022-08-17T01:29:37.467Z,2.40
2022-08-17T01:34:43.875Z,2.35
2022-08-17T01:40:00.790Z,2.30
2022-08-17T01:45:09.313Z,2.50
2022-08-17T01:50:15.777Z,3.55
2022-08-17T01:55:24.594Z,2.38
2022-08-17T02:00:29.292Z,3.13
2022-08-17T02:05:53.117Z,2.30
2022-08-17T02:10:55.028Z,2.63
2022-08-17T02:15:57.400Z,2.67
2022-08-17T02:20:58.885Z,5.00
2022-08-17T02:26:01.051Z,2.53
2022-08-17T02:31:11.248Z,2.70
2022-08-17T02:36:13.810Z,2.50
2022-08-17T02:41:15.653Z,2.53
2022-08-17T02:46:17.196Z,2.60
2022-08-17T02:51:18.685Z,2.80
2022-08-17T02:56:20.209Z,2.53
2022-08-17T03:01:21.757Z,3.27
2022-08-17T03:06:23.638Z,2.67
2022-08-17T03:11:25.171Z,3.63
2022-08-17T03:16:26.828Z,3.00
2022-08-17T03:21:28.391Z,2.53
2022-08-17T03:26:29.970Z,2.40
2022-08-17T03:31:31.823Z,2.60
2022-08-17T03:36:35.963Z,2.80
2022-08-17T03:41:37.802Z,4.00
2022-08-17T03:46:57.656Z,2.77
2022-08-17T03:52:18.096Z,2.78
2022-08-17T03:57:19.680Z,2.70
2022-08-17T04:02:27.587Z,3.13
2022-08-17T04:07:30.756Z,3.37
2022-08-17T04:12:50.286Z,3.57
2022-08-17T04:17:52.519Z,3.10
2022-08-17T04:23:06.514Z,3.57
2022-08-17T04:28:16.267Z,3.10
2022-08-17T04:33:24.107Z,3.03
2022-08-17T04:38:28.426Z,2.80
2022-08-17T04:43:31.590Z,2.93
2022-08-17T04:48:37.426Z,2.80
2022-08-17T04:53:44.406Z,2.90
2022-08-17T04:58:49.748Z,4.50
2022-08-17T05:03:56.494Z,2.63
2022-08-17T05:08:58.569Z,2.67
2022-08-17T05:14:00.381Z,2.60
2022-08-17T05:19:02.663Z,2.80
2022-08-17T05:24:06.091Z,3.13
2022-08-17T05:29:35.185Z,2.80
2022-08-17T05:34:37.384Z,3.47
2022-08-17T05:39:39.041Z,3.80
2022-08-17T05:44:40.544Z,2.77
2022-08-17T05:49:42.159Z,2.70
2022-08-17T05:55:04.369Z,3.47
2022-08-17T06:00:30.125Z,2.57
2022-08-17T06:05:46.270Z,2.70
2022-08-17T06:11:03.274Z,3.22
2022-08-17T06:16:25.929Z,2.80
2022-08-17T06:21:34.882Z,2.70
2022-08-17T06:26:42.948Z,4.20
2022-08-17T06:31:45.043Z,2.38
2022-08-17T06:36:52.537Z,2.38
2022-08-17T06:41:55.658Z,2.58
2022-08-17T06:47:12.480Z,2.83
2022-08-17T06:52:45.946Z,3.55
2022-08-17T06:57:55.659Z,4.15
2022-08-17T07:03:09.601Z,8.73
2022-08-17T07:08:35.102Z,2.97
2022-08-17T07:13:54.998Z,5.45
2022-08-17T07:18:57.234Z,3.85
2022-08-17T07:24:11.555Z,3.65
2022-08-17T07:29:34.231Z,5.35
2022-08-17T07:35:02.487Z,3.13
2022-08-17T07:40:28.132Z,3.33
2022-08-17T07:45:49.096Z,3.85
2022-08-17T07:50:53.145Z,2.65
2022-08-17T07:55:54.762Z,3.13
2022-08-17T08:01:11.555Z,4.38
2022-08-17T08:06:24.646Z,5.50
2022-08-17T08:11:35.415Z,2.63
2022-08-17T08:16:37.399Z,3.40
2022-08-17T08:21:55.392Z,3.00
2022-08-17T08:27:19.064Z,3.03
2022-08-17T08:32:54.142Z,4.88
2022-08-17T08:38:34.975Z,3.85
2022-08-17T08:43:52.868Z,3.35
2022-08-17T08:50:09.238Z,4.78
2022-08-17T08:55:44.694Z,3.42
2022-08-17T09:00:50.952Z,4.15
2022-08-17T09:06:00.145Z,4.78
2022-08-17T09:11:22.403Z,6.15
2022-08-17T09:16:36.086Z,4.60
2022-08-17T09:21:48.486Z,4.72
2022-08-17T09:26:59.494Z,5.53
2022-08-17T09:32:05.212Z,4.80
2022-08-17T09:37:35.082Z,7.97
2022-08-17T09:43:25.157Z,10.57
2022-08-17T09:48:32.709Z,7.10
2022-08-17T09:53:39.575Z,6.15
2022-08-17T09:59:18.386Z,7.22
2022-08-17T10:04:33.929Z,6.38
2022-08-17T10:09:51.210Z,6.72
2022-08-17T10:15:23.243Z,7.32
2022-08-17T10:20:42.019Z,5.90
2022-08-17T10:26:05.787Z,6.68
2022-08-17T10:31:33.733Z,6.95
2022-08-17T10:36:50.059Z,6.40
2022-08-17T10:41:57.213Z,6.50
2022-08-17T10:47:15.475Z,6.30
2022-08-17T10:52:19.847Z,6.35
2022-08-17T10:57:27.119Z,6.43
2022-08-17T11:02:33.477Z,7.50
2022-08-17T11:08:12.538Z,7.10
2022-08-17T11:13:48.576Z,8.30
2022-08-17T11:19:14.942Z,6.85
2022-08-17T11:24:24.075Z,7.35
2022-08-17T11:29:34.357Z,11.77
2022-08-17T11:34:38.288Z,7.60
2022-08-17T11:40:06.410Z,6.47
2022-08-17T11:45:40.120Z,7.95
2022-08-17T11:51:25.219Z,7.22
2022-08-17T11:56:48.666Z,7.85
2022-08-17T12:01:53.001Z,7.20
2022-08-17T12:07:00.850Z,8.10
2022-08-17T12:12:14.423Z,7.43
2022-08-17T12:17:39.258Z,6.72
2022-08-17T12:23:04.881Z,8.43
2022-08-17T12:28:20.642Z,10.18
2022-08-17T12:33:25.477Z,7.88
2022-08-17T12:38:34.685Z,7.22
2022-08-17T12:43:36.332Z,8.13
2022-08-17T12:48:37.879Z,10.52
2022-08-17T12:53:40.767Z,8.68
2022-08-17T12:59:02.429Z,7.97
2022-08-17T13:04:05.939Z,7.95
2022-08-17T13:09:13.662Z,8.05
2022-08-17T13:14:25.044Z,8.45
2022-08-17T13:19:29.828Z,7.95
2022-08-17T13:24:57.554Z,7.93
2022-08-17T13:30:02.177Z,7.75
2022-08-17T13:35:28.382Z,8.07
2022-08-17T13:40:38.080Z,8.77
2022-08-17T13:45:50.774Z,8.55
2022-08-17T13:50:55.652Z,7.82
2022-08-17T13:56:38.301Z,7.38
2022-08-17T14:01:52.566Z,7.88
2022-08-17T14:07:04.048Z,7.43
2022-08-17T14:12:10.637Z,7.32
2022-08-17T14:17:12.531Z,8.20
2022-08-17T14:22:27.237Z,7.47
2022-08-17T14:27:31.748Z,6.63
2022-08-17T14:32:36.396Z,7.00
2022-08-17T14:37:38.626Z,6.72
2022-08-17T14:42:42.062Z,8.63
2022-08-17T14:47:43.898Z,7.07
2022-08-17T14:52:47.138Z,8.32
2022-08-17T14:57:48.669Z,6.63
2022-08-17T15:02:55.434Z,6.50
2022-08-17T15:07:58.113Z,9.48
2022-08-17T15:13:00.344Z,7.25
2022-08-17T15:18:02.583Z,7.15
2022-08-17T15:23:04.519Z,8.02
2022-08-17T15:28:07.350Z,6.65
2022-08-17T15:33:16.556Z,6.38
2022-08-17T15:38:18.451Z,10.05
2022-08-17T15:43:27.996Z,7.00
2022-08-17T15:48:43.882Z,9.75
2022-08-17T15:53:48.530Z,6.30
2022-08-17T15:58:50.205Z,6.03
2022-08-17T16:04:07.176Z,5.05
2022-08-17T16:09:22.192Z,5.70
2022-08-17T16:14:30.214Z,5.60
2022-08-17T16:19:36.331Z,4.50
2022-08-17T16:24:45.874Z,5.95
2022-08-17T16:29:58.608Z,5.10
2022-08-17T16:35:06.175Z,5.28
2022-08-17T16:40:08.414Z,6.00
2022-08-17T16:45:24.651Z,4.85
2022-08-17T16:50:26.262Z,5.68
2022-08-17T16:55:27.750Z,4.82
2022-08-17T17:00:29.913Z,5.32
2022-08-17T17:05:40.398Z,4.65
2022-08-17T17:10:45.521Z,5.00
2022-08-17T17:15:59.348Z,4.80
2022-08-17T17:21:01.086Z,5.45
2022-08-17T17:26:29.857Z,5.28
2022-08-17T17:31:42.682Z,5.68
2022-08-17T17:36:50.983Z,5.25
2022-08-17T17:41:58.473Z,5.00
2022-08-17T17:47:02.414Z,4.75
2022-08-17T17:52:18.904Z,5.45
2022-08-17T17:57:33.560Z,5.70
2022-08-17T18:03:02.851Z,5.53
2022-08-17T18:08:16.498Z,5.82
2022-08-17T18:13:28.348Z,4.80
2022-08-17T18:18:37.861Z,5.38
2022-08-17T18:23:51.187Z,6.53
2022-08-17T18:28:53.423Z,6.35
2022-08-17T18:34:46.013Z,5.65
2022-08-17T18:39:46.655Z,6.15
2022-08-17T18:44:51.733Z,6.70
2022-08-17T18:50:16.541Z,7.63
2022-08-17T18:55:22.284Z,5.80
2022-08-17T19:00:29.915Z,10.20
2022-08-17T19:05:38.836Z,7.13
2022-08-17T19:10:46.865Z,6.20
2022-08-17T19:16:11.529Z,6.53
2022-08-17T19:21:21.887Z,5.72
2022-08-17T19:26:53.716Z,6.22
2022-08-17T19:31:50.107Z,6.28
2022-08-17T19:37:01.562Z,5.68
2022-08-17T19:42:25.100Z,6.05
2022-08-17T19:47:58.553Z,5.57
2022-08-17T19:53:41.777Z,6.75
2022-08-17T19:58:56.179Z,6.40
2022-08-17T20:04:05.708Z,6.18
2022-08-17T20:09:18.515Z,6.55
2022-08-17T20:14:53.469Z,6.40
2022-08-17T20:20:19.574Z,7.22
2022-08-17T20:25:31.565Z,7.35
2022-08-17T20:30:38.946Z,6.40
2022-08-17T20:36:01.193Z,6.88
2022-08-17T20:41:03.801Z,7.05
2022-08-17T20:46:17.495Z,6.43
2022-08-17T20:51:24.147Z,6.28
2022-08-17T20:56:44.202Z,6.97
2022-08-17T21:02:07.219Z,7.88
2022-08-17T21:07:42.792Z,7.00
2022-08-17T21:12:49.781Z,6.72
2022-08-17T21:18:06.513Z,6.70
2022-08-17T21:23:32.723Z,7.13
2022-08-17T21:29:00.506Z,7.07
2022-08-17T21:34:14.965Z,6.53
2022-08-17T21:39:24.013Z,7.10
2022-08-17T21:44:35.468Z,8.87
2022-08-17T21:49:38.022Z,7.00
2022-08-17T21:54:44.293Z,9.87
2022-08-17T21:59:51.305Z,7.28
2022-08-17T22:05:02.129Z,8.00
2022-08-17T22:10:06.215Z,7.60
2022-08-17T22:15:09.654Z,7.53
2022-08-17T22:20:15.718Z,7.37
2022-08-17T22:25:21.271Z,7.87
2022-08-17T22:30:38.233Z,7.73
2022-08-17T22:35:43.633Z,6.90
2022-08-17T22:40:47.191Z,7.23
2022-08-17T22:45:51.432Z,7.30
2022-08-17T22:51:04.149Z,8.10
2022-08-17T22:56:39.302Z,7.10
2022-08-17T23:01:42.071Z,7.50
2022-08-17T23:06:43.632Z,7.87
2022-08-17T23:11:49.903Z,8.13
2022-08-17T23:16:51.745Z,7.90
2022-08-17T23:21:55.071Z,6.97
2022-08-17T23:26:57.293Z,7.07
2022-08-17T23:31:59.912Z,6.60
2022-08-17T23:37:04.414Z,7.07
2022-08-17T23:42:09.261Z,7.30
2022-08-17T23:47:11.524Z,6.30
2022-08-17T23:52:15.210Z,6.63
2022-08-17T23:57:33.386Z,6.87
